Shenandoah, Virginia
Current Conditions -  °F | °C
As of 8:35 AM on Friday 19 Dec 2014 (Local Time) from K8W2 Reporting Station
Scattered Clouds Scattered Clouds  
Wind Chill: 26°   Ceiling: Unl
Heat Index: 26°   Visibility: 5mi
Dew Point: 23°   Wind: 0mph
Humidity: 91%   Direction: NA
Pressure: 30.15"   Gusts: NA
Location:  38.49°N, 78.63°W
Report Text: K8W2 191335Z AUTO 00000KT 5SM SCT035 M04/M05 A3015 RMK AO1 T10361049
Loading
Personal Weather Stations






























Interactive Weather Map New forecast layout! Learn more

10-Day Weather Forecast

Advertisements
Track Severe Weather on mobile